Logan - 24 Hour Table
Date & TimeSolar
Radiation
(W/m²)
Wind
Speed
(mph)
Wind
Direction
(degrees)
Air
Temperature
(°F)
Relative
Humidity
(%)
Precipitation
(inches)
Barometric
Pressure
(inHg)
2019/04/18 13:00 930 3.0 285 58.4 42 0.00 30.30
2019/04/18 12:00 900 2.7 300 56.2 42 0.00 30.32
2019/04/18 11:00 813 2.7 248 53.6 52 0.00 30.34
2019/04/18 10:00 675 1.0 253 50.4 53 0.00 30.34
2019/04/18 09:00 498 1.8 204 45.8 65 0.00 30.33
2019/04/18 08:00 302 3.7 205 41.4 76 0.00 30.33
2019/04/18 07:00 101 0.5 113 36.3 90 0.00 30.32
2019/04/18 06:00 3 1.4 248 34.2 96 0.00 30.30
2019/04/18 05:00 0 0.6 244 35.2 94 0.00 30.28
2019/04/18 04:00 0 2.1 347 36.6 89 0.00 30.28
2019/04/18 03:00 0 0.8 143 39.3 86 0.00 30.27
2019/04/18 02:00 0 1.0 158 41.6 79 0.00 30.26
2019/04/18 01:00 0 1.0 223 43.5 79 0.00 30.25
2019/04/18 00:00 0 0.9 122 45.4 73 0.00 30.25
2019/04/17 23:00 0 1.1 8 46.9 72 0.00 30.24
2019/04/17 22:00 0 2.2 343 48.0 75 0.00 30.23
2019/04/17 21:00 0 1.8 24 49.9 66 0.00 30.22
2019/04/17 20:00 0 0.9 114 51.5 58 0.00 30.19
2019/04/17 19:00 28 0.6 249 52.6 54 0.00 30.18
2019/04/17 18:00 77 5.7 270 52.8 55 0.00 30.18
2019/04/17 17:00 146 4.5 212 52.6 54 0.00 30.17
2019/04/17 16:00 129 5.1 215 51.9 53 0.00 30.16
2019/04/17 15:00 204 6.8 263 52.8 59 0.00 30.17
2019/04/17 14:00 497 4.1 312 53.3 48 0.00 30.17